createdAt,value
2018-12-30T00:00:18.524Z,7.95
2018-12-30T00:01:18.338Z,7.98
2018-12-30T00:02:18.289Z,7.86
2018-12-30T00:03:18.267Z,7.96
2018-12-30T00:04:18.581Z,7.92
2018-12-30T00:05:18.246Z,7.86
2018-12-30T00:06:18.234Z,7.94
2018-12-30T00:07:18.230Z,7.95
2018-12-30T00:08:18.230Z,7.96
2018-12-30T00:09:18.208Z,7.91
2018-12-30T00:10:18.219Z,7.95
2018-12-30T00:11:18.179Z,7.95
2018-12-30T00:12:18.176Z,7.86
2018-12-30T00:13:18.163Z,7.96
2018-12-30T00:14:18.162Z,7.88
2018-12-30T00:15:18.135Z,7.94
2018-12-30T00:16:18.154Z,7.98
2018-12-30T00:17:18.114Z,7.92
2018-12-30T00:18:18.104Z,7.99
2018-12-30T00:19:18.093Z,7.96
2018-12-30T00:20:18.090Z,8.01
2018-12-30T00:21:18.087Z,7.95
2018-12-30T00:22:18.099Z,7.88
2018-12-30T00:23:18.777Z,7.91
2018-12-30T00:24:18.107Z,7.91
2018-12-30T00:25:18.089Z,7.84
2018-12-30T00:26:18.015Z,7.88
2018-12-30T00:27:18.044Z,7.91
2018-12-30T00:28:18.117Z,7.84
2018-12-30T00:29:18.378Z,7.86
2018-12-30T00:30:17.979Z,7.81
2018-12-30T00:31:17.962Z,7.78
2018-12-30T00:32:17.992Z,7.71
2018-12-30T00:33:17.947Z,7.81
2018-12-30T00:34:18.139Z,7.91
2018-12-30T00:35:17.916Z,7.91
2018-12-30T00:36:17.912Z,7.94
2018-12-30T00:37:17.910Z,7.84
2018-12-30T00:38:17.888Z,7.86
2018-12-30T00:39:17.877Z,7.74
2018-12-30T00:40:17.953Z,7.73
2018-12-30T00:41:17.861Z,7.78
2018-12-30T00:42:17.862Z,7.76
2018-12-30T00:43:17.837Z,7.80
2018-12-30T00:44:17.924Z,7.71
2018-12-30T00:45:17.924Z,7.76
2018-12-30T00:46:17.907Z,7.73
2018-12-30T00:47:17.784Z,7.77
2018-12-30T00:48:17.795Z,7.74
2018-12-30T00:49:17.773Z,7.62
2018-12-30T00:50:17.772Z,7.64
2018-12-30T00:51:17.750Z,7.64
2018-12-30T00:52:17.765Z,7.62
2018-12-30T00:53:17.732Z,7.60
2018-12-30T00:54:17.721Z,7.62
2018-12-30T00:55:17.706Z,7.62
2018-12-30T00:56:17.703Z,7.57
2018-12-30T00:57:17.686Z,7.61
2018-12-30T00:58:17.705Z,7.58
2018-12-30T00:59:17.664Z,7.64
2018-12-30T01:00:17.644Z,7.60
2018-12-30T01:01:17.642Z,7.73
2018-12-30T01:02:17.637Z,7.66
2018-12-30T01:03:17.614Z,7.61
2018-12-30T01:04:17.657Z,7.71
2018-12-30T01:05:17.605Z,7.60
2018-12-30T01:06:17.610Z,7.57
2018-12-30T01:07:17.569Z,7.62
2018-12-30T01:08:17.566Z,7.68
2018-12-30T01:09:17.554Z,7.64
2018-12-30T01:10:17.578Z,7.64
2018-12-30T01:11:17.527Z,7.58
2018-12-30T01:12:17.511Z,7.58
2018-12-30T01:13:17.517Z,7.61
2018-12-30T01:14:17.495Z,7.61
2018-12-30T01:15:17.482Z,7.62
2018-12-30T01:16:17.499Z,7.57
2018-12-30T01:17:17.461Z,7.62
2018-12-30T01:18:17.466Z,7.55
2018-12-30T01:19:17.436Z,7.58
2018-12-30T01:20:17.427Z,7.64
2018-12-30T01:21:24.794Z,7.61
2018-12-30T01:22:18.434Z,7.62
2018-12-30T01:23:17.395Z,7.64
2018-12-30T01:24:17.387Z,7.62
2018-12-30T01:25:17.383Z,7.57
2018-12-30T01:26:17.391Z,7.68
2018-12-30T01:27:17.354Z,7.64
2018-12-30T01:28:17.380Z,7.66
2018-12-30T01:29:17.334Z,7.55
2018-12-30T01:30:17.322Z,7.61
2018-12-30T01:31:17.320Z,7.58
2018-12-30T01:32:17.294Z,7.61
2018-12-30T01:33:17.285Z,7.68
2018-12-30T01:34:17.303Z,7.60
2018-12-30T01:35:17.265Z,7.68
2018-12-30T01:36:17.254Z,7.62
2018-12-30T01:37:17.245Z,7.57
2018-12-30T01:38:17.239Z,7.64
2018-12-30T01:39:17.233Z,7.55
2018-12-30T01:40:17.249Z,7.55
2018-12-30T01:41:17.212Z,7.50
2018-12-30T01:42:17.205Z,7.43
2018-12-30T01:43:17.192Z,7.46
2018-12-30T01:44:17.164Z,7.58
2018-12-30T01:45:17.165Z,7.58
2018-12-30T01:46:17.191Z,7.55
2018-12-30T01:47:17.144Z,7.62
2018-12-30T01:48:17.126Z,7.64
2018-12-30T01:49:17.112Z,7.64
2018-12-30T01:50:17.120Z,7.57
2018-12-30T01:51:17.086Z,7.57
2018-12-30T01:52:17.107Z,7.54
2018-12-30T01:53:17.065Z,7.60
2018-12-30T01:54:17.054Z,7.57
2018-12-30T01:55:17.051Z,7.61
2018-12-30T01:56:17.038Z,7.61
2018-12-30T01:57:17.028Z,7.58
2018-12-30T01:58:17.063Z,7.52
2018-12-30T01:59:17.013Z,7.58
2018-12-30T02:00:17.048Z,7.57
2018-12-30T02:01:16.997Z,7.52
2018-12-30T02:02:16.981Z,7.52
2018-12-30T02:03:16.964Z,7.60
2018-12-30T02:04:16.980Z,7.54
2018-12-30T02:05:16.944Z,7.55
2018-12-30T02:06:16.935Z,7.62
2018-12-30T02:07:16.920Z,7.52
2018-12-30T02:08:18.219Z,7.61
2018-12-30T02:09:16.890Z,7.55
2018-12-30T02:10:16.914Z,7.46
2018-12-30T02:11:16.878Z,7.47
2018-12-30T02:12:16.871Z,7.49
2018-12-30T02:13:16.846Z,7.47
2018-12-30T02:14:16.882Z,7.49
2018-12-30T02:15:16.825Z,7.46
2018-12-30T02:16:16.844Z,7.47
2018-12-30T02:17:16.813Z,7.46
2018-12-30T02:18:16.796Z,7.46
2018-12-30T02:19:16.781Z,7.50
2018-12-30T02:20:16.771Z,7.50
2018-12-30T02:21:16.760Z,7.43
2018-12-30T02:22:16.779Z,7.46
2018-12-30T02:23:16.754Z,7.49
2018-12-30T02:24:16.728Z,7.43
2018-12-30T02:25:16.719Z,7.49
2018-12-30T02:26:16.710Z,7.44
2018-12-30T02:27:16.694Z,7.46
2018-12-30T02:28:16.712Z,7.46
2018-12-30T02:29:16.677Z,7.46
2018-12-30T02:30:16.677Z,7.39
2018-12-30T02:31:16.662Z,7.46
2018-12-30T02:32:16.652Z,7.44
2018-12-30T02:33:16.630Z,7.40
2018-12-30T02:34:16.665Z,7.37
2018-12-30T02:35:16.618Z,7.43
2018-12-30T02:36:16.597Z,7.36
2018-12-30T02:37:16.586Z,7.34
2018-12-30T02:38:16.590Z,7.37
2018-12-30T02:39:16.569Z,7.36
2018-12-30T02:40:16.588Z,7.34
2018-12-30T02:41:16.547Z,7.39
2018-12-30T02:42:16.535Z,7.42
2018-12-30T02:43:16.528Z,7.34
2018-12-30T02:44:16.516Z,7.37
2018-12-30T02:45:16.508Z,7.36
2018-12-30T02:46:16.525Z,7.34
2018-12-30T02:47:16.484Z,7.39
2018-12-30T02:48:16.496Z,7.34
2018-12-30T02:49:16.468Z,7.46
2018-12-30T02:50:16.457Z,7.36
2018-12-30T02:51:16.449Z,7.34
2018-12-30T02:52:16.484Z,7.37
2018-12-30T02:53:16.422Z,7.28
2018-12-30T02:54:16.419Z,7.28
2018-12-30T02:55:16.437Z,7.31
2018-12-30T02:56:16.395Z,7.40
2018-12-30T02:57:16.380Z,7.36
2018-12-30T02:58:16.398Z,7.49
2018-12-30T02:59:16.375Z,7.44
2018-12-30T03:00:16.353Z,7.40
2018-12-30T03:01:16.356Z,7.37
2018-12-30T03:02:16.345Z,7.40
2018-12-30T03:03:16.308Z,7.33
2018-12-30T03:04:16.351Z,7.28
2018-12-30T03:05:16.293Z,7.25
2018-12-30T03:06:16.299Z,7.29
2018-12-30T03:07:16.273Z,7.26
2018-12-30T03:08:16.248Z,7.21
2018-12-30T03:09:16.255Z,7.19
2018-12-30T03:10:16.267Z,7.18
2018-12-30T03:11:16.250Z,7.24
2018-12-30T03:12:16.227Z,7.33
2018-12-30T03:13:16.199Z,7.21
2018-12-30T03:14:16.192Z,7.28
2018-12-30T03:15:16.175Z,7.26
2018-12-30T03:16:16.211Z,7.29
2018-12-30T03:17:16.152Z,7.28
2018-12-30T03:18:16.144Z,7.28
2018-12-30T03:19:16.143Z,7.28
2018-12-30T03:20:16.120Z,7.26
2018-12-30T03:21:16.110Z,7.18
2018-12-30T03:22:16.136Z,7.24
2018-12-30T03:23:16.088Z,7.16
2018-12-30T03:24:16.082Z,7.16
2018-12-30T03:25:16.066Z,7.22
2018-12-30T03:26:16.053Z,7.29
2018-12-30T03:27:16.044Z,7.25
2018-12-30T03:28:16.062Z,7.22
2018-12-30T03:29:16.021Z,7.26
2018-12-30T03:30:16.026Z,7.25
2018-12-30T03:31:16.010Z,7.26
2018-12-30T03:32:16.011Z,7.22
2018-12-30T03:33:15.990Z,7.18
2018-12-30T03:34:16.012Z,7.15
2018-12-30T03:35:15.965Z,7.13
2018-12-30T03:36:15.957Z,7.21
2018-12-30T03:37:15.949Z,7.28
2018-12-30T03:38:15.930Z,7.25
2018-12-30T03:39:15.928Z,7.21
2018-12-30T03:40:15.945Z,7.24
2018-12-30T03:41:15.903Z,7.16
2018-12-30T03:42:15.882Z,7.16
2018-12-30T03:43:15.871Z,7.13
2018-12-30T03:44:15.869Z,7.08
2018-12-30T03:45:15.865Z,7.16
2018-12-30T03:46:15.888Z,7.16
2018-12-30T03:47:15.837Z,7.18
2018-12-30T03:48:15.816Z,7.11
2018-12-30T03:49:15.820Z,7.25
2018-12-30T03:50:15.809Z,7.13
2018-12-30T03:51:15.793Z,7.21
2018-12-30T03:52:15.818Z,7.18
2018-12-30T03:53:15.765Z,7.19
2018-12-30T03:54:15.766Z,7.11
2018-12-30T03:55:15.738Z,7.10
2018-12-30T03:56:15.730Z,7.16
2018-12-30T03:57:15.731Z,7.04
2018-12-30T03:58:15.740Z,7.10
2018-12-30T03:59:15.700Z,7.04
2018-12-30T04:00:15.684Z,7.08
2018-12-30T04:01:15.677Z,7.13
2018-12-30T04:02:15.677Z,7.06
2018-12-30T04:03:15.652Z,7.04
2018-12-30T04:04:15.672Z,7.08
2018-12-30T04:05:15.642Z,7.16
2018-12-30T04:06:15.625Z,7.07
2018-12-30T04:07:15.610Z,7.15
2018-12-30T04:08:15.606Z,7.01
2018-12-30T04:09:15.587Z,7.08
2018-12-30T04:10:15.608Z,7.10
2018-12-30T04:11:15.566Z,7.08
2018-12-30T04:12:15.554Z,7.08
2018-12-30T04:13:15.546Z,7.08
2018-12-30T04:14:15.540Z,7.01
2018-12-30T04:15:15.527Z,7.06
2018-12-30T04:16:15.568Z,7.07
2018-12-30T04:17:15.517Z,7.21
2018-12-30T04:18:15.500Z,7.18
2018-12-30T04:19:15.485Z,7.13
2018-12-30T04:20:15.478Z,7.13
2018-12-30T04:21:15.460Z,7.11
2018-12-30T04:22:17.025Z,7.18
2018-12-30T04:23:15.448Z,7.18
2018-12-30T04:24:15.433Z,7.22
2018-12-30T04:25:15.434Z,7.07
2018-12-30T04:26:15.402Z,7.08
2018-12-30T04:27:15.410Z,7.03
2018-12-30T04:28:15.432Z,7.07
2018-12-30T04:29:15.370Z,6.99
2018-12-30T04:30:15.372Z,7.00
2018-12-30T04:31:15.363Z,7.03
2018-12-30T04:32:15.351Z,7.01
2018-12-30T04:33:15.339Z,7.00
2018-12-30T04:34:15.351Z,6.99
2018-12-30T04:35:15.305Z,6.93
2018-12-30T04:36:15.293Z,6.91
2018-12-30T04:37:15.285Z,6.86
2018-12-30T04:38:15.283Z,6.83
2018-12-30T04:39:15.272Z,6.85
2018-12-30T04:40:15.285Z,6.88
2018-12-30T04:41:15.241Z,6.89
2018-12-30T04:42:15.229Z,6.83
2018-12-30T04:43:15.249Z,6.89
2018-12-30T04:44:15.223Z,6.88
2018-12-30T04:45:15.206Z,6.86
2018-12-30T04:46:15.251Z,6.91
2018-12-30T04:47:15.187Z,6.83
2018-12-30T04:48:15.170Z,6.91
2018-12-30T04:49:15.165Z,6.91
2018-12-30T04:50:15.149Z,6.88
2018-12-30T04:51:15.171Z,6.93
2018-12-30T04:52:15.163Z,6.86
2018-12-30T04:53:15.110Z,6.85
2018-12-30T04:54:15.107Z,6.88
2018-12-30T04:55:15.096Z,6.89
2018-12-30T04:56:15.089Z,6.83
2018-12-30T04:57:15.072Z,6.83
2018-12-30T04:58:15.093Z,6.83
2018-12-30T04:59:15.050Z,6.92
2018-12-30T05:00:15.032Z,6.89
2018-12-30T05:01:15.033Z,7.00
2018-12-30T05:02:15.014Z,7.00
2018-12-30T05:03:15.003Z,6.97
2018-12-30T05:04:15.033Z,6.86
2018-12-30T05:05:15.040Z,7.00
2018-12-30T05:06:15.000Z,6.88
2018-12-30T05:07:14.971Z,6.92
2018-12-30T05:08:14.957Z,6.88
2018-12-30T05:09:14.945Z,6.86
2018-12-30T05:10:15.017Z,6.85
2018-12-30T05:11:14.959Z,6.83
2018-12-30T05:12:14.915Z,6.82
2018-12-30T05:13:14.902Z,6.88
2018-12-30T05:14:14.893Z,6.93
2018-12-30T05:15:14.872Z,6.88
2018-12-30T05:16:14.891Z,6.86
2018-12-30T05:17:14.849Z,6.86
2018-12-30T05:18:14.853Z,6.91
2018-12-30T05:19:14.837Z,6.89
2018-12-30T05:20:14.828Z,6.85
2018-12-30T05:21:14.817Z,6.89
2018-12-30T05:22:14.828Z,6.85
2018-12-30T05:23:14.798Z,6.82
2018-12-30T05:24:14.773Z,6.85
2018-12-30T05:25:14.783Z,6.92
2018-12-30T05:26:14.760Z,6.91
2018-12-30T05:27:14.752Z,6.81
2018-12-30T05:28:14.781Z,6.74
2018-12-30T05:29:14.721Z,6.86
2018-12-30T05:30:14.719Z,6.75
2018-12-30T05:31:14.697Z,6.75
2018-12-30T05:32:14.703Z,6.82
2018-12-30T05:33:14.676Z,6.79
2018-12-30T05:34:14.696Z,6.81
2018-12-30T05:35:14.666Z,6.81
2018-12-30T05:36:14.652Z,6.78
2018-12-30T05:37:14.639Z,6.78
2018-12-30T05:38:14.636Z,6.75
2018-12-30T05:39:14.616Z,6.88
2018-12-30T05:40:14.649Z,6.83
2018-12-30T05:41:14.602Z,6.88
2018-12-30T05:42:14.585Z,6.83
2018-12-30T05:43:14.575Z,6.86
2018-12-30T05:44:14.571Z,6.83
2018-12-30T05:45:14.549Z,6.85
2018-12-30T05:46:14.578Z,6.83
2018-12-30T05:47:14.526Z,6.86
2018-12-30T05:48:14.512Z,6.85
2018-12-30T05:49:14.558Z,6.85
2018-12-30T05:50:14.502Z,6.85
2018-12-30T05:51:14.479Z,6.83
2018-12-30T05:52:14.519Z,6.85
2018-12-30T05:53:14.467Z,6.97
2018-12-30T05:54:14.448Z,6.86
2018-12-30T05:55:14.444Z,6.85
2018-12-30T05:56:14.431Z,6.89
2018-12-30T05:57:14.425Z,6.85
2018-12-30T05:58:14.444Z,6.85
2018-12-30T05:59:14.395Z,6.86
2018-12-30T06:00:14.388Z,6.83
2018-12-30T06:01:14.387Z,6.89
2018-12-30T06:02:14.362Z,6.82
2018-12-30T06:03:14.363Z,6.85
2018-12-30T06:04:14.397Z,6.79
2018-12-30T06:05:14.326Z,6.85
2018-12-30T06:06:14.318Z,6.79
2018-12-30T06:07:14.306Z,6.79
2018-12-30T06:08:14.318Z,6.82
2018-12-30T06:09:14.309Z,6.85
2018-12-30T06:10:14.316Z,6.81
2018-12-30T06:11:14.263Z,6.86
2018-12-30T06:12:14.260Z,6.70
2018-12-30T06:13:14.241Z,6.67
2018-12-30T06:14:14.233Z,6.75
2018-12-30T06:15:14.223Z,6.79
2018-12-30T06:16:14.255Z,6.73
2018-12-30T06:17:14.204Z,6.64
2018-12-30T06:18:14.187Z,6.63
2018-12-30T06:19:14.187Z,6.67
2018-12-30T06:20:14.165Z,6.61
2018-12-30T06:21:14.154Z,6.64
2018-12-30T06:22:14.198Z,6.71
2018-12-30T06:23:14.140Z,6.64
2018-12-30T06:24:14.126Z,6.64
2018-12-30T06:25:14.112Z,6.64
2018-12-30T06:26:14.105Z,6.67
2018-12-30T06:27:14.089Z,6.64
2018-12-30T06:28:14.114Z,6.67
2018-12-30T06:29:14.074Z,6.63
2018-12-30T06:30:14.078Z,6.68
2018-12-30T06:31:14.048Z,6.64
2018-12-30T06:32:14.056Z,6.63
2018-12-30T06:33:14.023Z,6.64
2018-12-30T06:34:14.054Z,6.65
2018-12-30T06:35:14.008Z,6.61
2018-12-30T06:36:13.996Z,6.68
2018-12-30T06:37:13.997Z,6.78
2018-12-30T06:38:13.975Z,6.71
2018-12-30T06:39:13.961Z,6.74
2018-12-30T06:40:13.983Z,6.71
2018-12-30T06:41:13.943Z,6.70
2018-12-30T06:42:13.936Z,6.71
2018-12-30T06:43:13.933Z,6.73
2018-12-30T06:44:13.910Z,6.73
2018-12-30T06:45:13.896Z,6.75
2018-12-30T06:46:13.915Z,6.78
2018-12-30T06:47:13.877Z,6.73
2018-12-30T06:48:13.862Z,6.74
2018-12-30T06:49:13.869Z,6.74
2018-12-30T06:50:13.843Z,6.83
2018-12-30T06:51:13.828Z,6.71
2018-12-30T06:52:13.872Z,6.78
2018-12-30T06:53:13.806Z,6.74
2018-12-30T06:54:13.798Z,6.73
2018-12-30T06:55:13.798Z,6.82
2018-12-30T06:56:13.785Z,6.71
2018-12-30T06:57:13.765Z,6.70
2018-12-30T06:58:13.795Z,6.73
2018-12-30T06:59:13.748Z,6.75
2018-12-30T07:00:13.731Z,6.67
2018-12-30T07:01:13.722Z,6.73
2018-12-30T07:02:13.718Z,6.68
2018-12-30T07:03:13.764Z,6.73
2018-12-30T07:04:13.721Z,6.73
2018-12-30T07:05:13.680Z,6.73
2018-12-30T07:06:13.669Z,6.73
2018-12-30T07:07:13.701Z,6.75
2018-12-30T07:08:13.647Z,6.75
2018-12-30T07:09:13.692Z,6.68
2018-12-30T07:10:13.658Z,6.73
2018-12-30T07:11:13.612Z,6.71
2018-12-30T07:12:13.600Z,6.68
2018-12-30T07:13:13.806Z,6.71
2018-12-30T07:14:13.581Z,6.75
2018-12-30T07:15:13.569Z,6.75
2018-12-30T07:16:13.586Z,6.75
2018-12-30T07:17:13.549Z,6.74
2018-12-30T07:18:13.646Z,6.67
2018-12-30T07:19:13.637Z,6.74
2018-12-30T07:20:13.561Z,6.70
2018-12-30T07:21:13.564Z,6.73
2018-12-30T07:22:13.532Z,6.79
2018-12-30T07:23:13.483Z,6.82
2018-12-30T07:24:13.496Z,6.78
2018-12-30T07:25:13.477Z,6.71
2018-12-30T07:26:13.447Z,6.85
2018-12-30T07:27:13.446Z,6.78
2018-12-30T07:28:13.495Z,6.89
2018-12-30T07:29:13.417Z,6.86
2018-12-30T07:30:13.424Z,6.73
2018-12-30T07:31:13.398Z,6.79
2018-12-30T07:32:13.381Z,6.82
2018-12-30T07:33:13.390Z,6.75
2018-12-30T07:34:13.393Z,6.79
2018-12-30T07:35:13.348Z,6.83
2018-12-30T07:36:13.351Z,6.86
2018-12-30T07:37:14.602Z,6.82
2018-12-30T07:38:14.362Z,6.74
2018-12-30T07:39:13.422Z,6.78
2018-12-30T07:40:13.328Z,6.78
2018-12-30T07:41:13.325Z,6.75
2018-12-30T07:42:13.286Z,6.78
2018-12-30T07:43:13.262Z,6.78
2018-12-30T07:44:13.257Z,6.74
2018-12-30T07:45:13.239Z,6.73
2018-12-30T07:46:13.258Z,6.74
2018-12-30T07:47:13.221Z,6.74
2018-12-30T07:48:13.207Z,6.86
2018-12-30T07:49:13.212Z,6.82
2018-12-30T07:50:13.221Z,6.79
2018-12-30T07:51:14.957Z,6.82
2018-12-30T07:52:13.195Z,6.83
2018-12-30T07:53:13.848Z,6.79
2018-12-30T07:54:13.153Z,6.81
2018-12-30T07:55:13.145Z,6.81
2018-12-30T07:56:13.127Z,6.75
2018-12-30T07:57:13.110Z,6.74
2018-12-30T07:58:13.144Z,6.83
2018-12-30T07:59:13.102Z,6.81
2018-12-30T08:00:13.082Z,6.81
2018-12-30T08:01:13.066Z,6.83
2018-12-30T08:02:13.084Z,6.86
2018-12-30T08:03:13.052Z,6.81
2018-12-30T08:04:13.148Z,6.82
2018-12-30T08:05:13.029Z,6.83
2018-12-30T08:06:13.017Z,6.85
2018-12-30T08:07:13.075Z,6.82
2018-12-30T08:08:12.996Z,6.85
2018-12-30T08:09:13.006Z,6.86
2018-12-30T08:10:13.030Z,6.88
2018-12-30T08:11:12.967Z,6.82
2018-12-30T08:12:12.948Z,6.88
2018-12-30T08:13:12.950Z,6.86
2018-12-30T08:14:12.957Z,6.92
2018-12-30T08:15:12.927Z,6.89
2018-12-30T08:16:12.951Z,6.86
2018-12-30T08:17:12.899Z,6.96
2018-12-30T08:18:12.909Z,6.88
2018-12-30T08:19:12.888Z,7.00
2018-12-30T08:20:12.865Z,6.96
2018-12-30T08:21:12.863Z,6.99
2018-12-30T08:22:12.876Z,7.01
2018-12-30T08:23:12.832Z,6.97
2018-12-30T08:24:12.820Z,6.99
2018-12-30T08:25:12.816Z,6.96
2018-12-30T08:26:12.966Z,7.06
2018-12-30T08:27:12.831Z,7.06
2018-12-30T08:28:12.961Z,7.01
2018-12-30T08:29:12.763Z,7.06
2018-12-30T08:30:12.758Z,7.06
2018-12-30T08:31:12.745Z,7.04
2018-12-30T08:32:12.738Z,7.03
2018-12-30T08:33:12.749Z,6.97
2018-12-30T08:34:12.751Z,7.01
2018-12-30T08:35:12.706Z,7.03
2018-12-30T08:36:12.696Z,7.07
2018-12-30T08:37:12.675Z,7.03
2018-12-30T08:38:12.676Z,7.06
2018-12-30T08:39:12.660Z,7.03
2018-12-30T08:40:12.684Z,7.04
2018-12-30T08:41:12.645Z,7.07
2018-12-30T08:42:12.629Z,7.06
2018-12-30T08:43:12.613Z,7.18
2018-12-30T08:44:12.626Z,7.07
2018-12-30T08:45:12.595Z,7.19
2018-12-30T08:46:12.604Z,7.07
2018-12-30T08:47:12.653Z,7.08
2018-12-30T08:48:12.558Z,6.96
2018-12-30T08:49:12.553Z,7.10
2018-12-30T08:50:12.548Z,7.11
2018-12-30T08:51:12.570Z,7.11
2018-12-30T08:52:12.558Z,7.06
2018-12-30T08:53:12.514Z,7.10
2018-12-30T08:54:12.489Z,7.11
2018-12-30T08:55:12.477Z,7.19
2018-12-30T08:56:12.474Z,7.16
2018-12-30T08:57:12.462Z,7.21
2018-12-30T08:58:12.504Z,7.11
2018-12-30T08:59:12.475Z,7.21
2018-12-30T09:00:12.435Z,7.13
2018-12-30T09:01:12.419Z,7.13
2018-12-30T09:02:12.425Z,7.24
2018-12-30T09:03:12.400Z,7.24
2018-12-30T09:04:12.432Z,7.26
2018-12-30T09:05:12.380Z,7.26
2018-12-30T09:06:12.359Z,7.26
2018-12-30T09:07:12.351Z,7.26
2018-12-30T09:08:12.344Z,7.18
2018-12-30T09:09:12.345Z,7.22
2018-12-30T09:10:12.346Z,7.24
2018-12-30T09:11:12.327Z,7.26
2018-12-30T09:12:12.345Z,7.10
2018-12-30T09:13:12.290Z,7.24
2018-12-30T09:14:12.284Z,7.22
2018-12-30T09:15:12.278Z,7.28
2018-12-30T09:16:12.290Z,7.25
2018-12-30T09:17:12.252Z,7.16
2018-12-30T09:18:12.244Z,7.19
2018-12-30T09:19:12.224Z,7.21
2018-12-30T09:20:12.240Z,7.24
2018-12-30T09:21:12.214Z,7.26
2018-12-30T09:22:12.219Z,7.25
2018-12-30T09:23:12.180Z,7.26
2018-12-30T09:24:12.179Z,7.26
2018-12-30T09:25:12.158Z,7.22
2018-12-30T09:26:12.148Z,7.29
2018-12-30T09:27:12.197Z,7.26
2018-12-30T09:28:12.166Z,7.34
2018-12-30T09:29:12.115Z,7.33
2018-12-30T09:30:12.106Z,7.29
2018-12-30T09:31:12.090Z,7.31
2018-12-30T09:32:12.084Z,7.36
2018-12-30T09:33:12.104Z,7.37
2018-12-30T09:34:12.086Z,7.37
2018-12-30T09:35:12.044Z,7.46
2018-12-30T09:36:12.042Z,7.42
2018-12-30T09:37:12.060Z,7.43
2018-12-30T09:38:12.007Z,7.50
2018-12-30T09:39:12.001Z,7.44
2018-12-30T09:40:12.027Z,7.46
2018-12-30T09:41:11.984Z,7.46
2018-12-30T09:42:11.972Z,7.46
2018-12-30T09:43:11.958Z,7.54
2018-12-30T09:44:11.943Z,7.58
2018-12-30T09:45:11.940Z,7.52
2018-12-30T09:46:11.988Z,7.60
2018-12-30T09:47:11.918Z,7.62
2018-12-30T09:48:11.909Z,7.62
2018-12-30T09:49:11.887Z,7.60
2018-12-30T09:50:11.896Z,7.68
2018-12-30T09:51:11.873Z,7.77
2018-12-30T09:52:11.896Z,7.66
2018-12-30T09:53:11.850Z,7.80
2018-12-30T09:54:11.853Z,7.77
2018-12-30T09:55:11.820Z,7.77
2018-12-30T09:56:11.814Z,7.62
2018-12-30T09:57:11.802Z,7.74
2018-12-30T09:58:11.840Z,7.76
2018-12-30T09:59:11.786Z,7.74
2018-12-30T10:00:11.786Z,7.78
2018-12-30T10:01:11.776Z,7.84
2018-12-30T10:02:11.783Z,7.88
2018-12-30T10:03:11.741Z,7.91
2018-12-30T10:04:11.763Z,8.01
2018-12-30T10:05:11.770Z,7.99
2018-12-30T10:06:11.751Z,7.99
2018-12-30T10:07:11.718Z,8.16
2018-12-30T10:08:11.683Z,8.14
2018-12-30T10:09:11.684Z,8.13
2018-12-30T10:10:11.688Z,8.19
2018-12-30T10:11:11.648Z,8.14
2018-12-30T10:12:11.665Z,7.99
2018-12-30T10:13:11.731Z,8.02
2018-12-30T10:14:11.624Z,8.05
2018-12-30T10:15:11.631Z,7.98
2018-12-30T10:16:11.628Z,8.01
2018-12-30T10:17:11.587Z,8.04
2018-12-30T10:18:11.652Z,8.10
2018-12-30T10:19:11.572Z,8.16
2018-12-30T10:20:11.547Z,8.23
2018-12-30T10:21:11.568Z,8.17
2018-12-30T10:22:11.622Z,8.19
2018-12-30T10:23:11.516Z,8.17
2018-12-30T10:24:11.548Z,8.16
2018-12-30T10:25:11.638Z,8.20
2018-12-30T10:26:11.488Z,8.13
2018-12-30T10:27:11.474Z,8.16
2018-12-30T10:28:11.491Z,8.14
2018-12-30T10:29:11.454Z,8.17
2018-12-30T10:30:11.471Z,8.19
2018-12-30T10:31:11.431Z,8.13
2018-12-30T10:32:11.459Z,8.12
2018-12-30T10:33:11.405Z,8.17
2018-12-30T10:34:11.432Z,8.14
2018-12-30T10:35:11.404Z,8.09
2018-12-30T10:36:11.375Z,8.10
2018-12-30T10:37:11.371Z,8.09
2018-12-30T10:38:11.425Z,8.14
2018-12-30T10:39:11.362Z,7.96
2018-12-30T10:40:11.362Z,8.09
2018-12-30T10:41:11.320Z,7.98
2018-12-30T10:42:11.312Z,8.02
2018-12-30T10:43:11.346Z,7.99
2018-12-30T10:44:11.303Z,8.13
2018-12-30T10:45:11.289Z,8.02
2018-12-30T10:46:11.325Z,8.19
2018-12-30T10:47:11.253Z,8.14
2018-12-30T10:48:11.258Z,8.12
2018-12-30T10:49:11.241Z,8.14
2018-12-30T10:50:11.221Z,8.14
2018-12-30T10:51:11.232Z,8.14
2018-12-30T10:52:11.292Z,8.16
2018-12-30T10:53:11.190Z,8.26
2018-12-30T10:54:11.178Z,8.20
2018-12-30T10:55:11.166Z,8.17
2018-12-30T10:56:11.153Z,8.19
2018-12-30T10:57:11.142Z,8.20
2018-12-30T10:58:11.197Z,8.12
2018-12-30T10:59:11.133Z,8.14
2018-12-30T11:00:11.115Z,8.21
2018-12-30T11:01:11.123Z,8.09
2018-12-30T11:02:11.090Z,8.19
2018-12-30T11:03:11.094Z,8.16
2018-12-30T11:04:11.098Z,8.10
2018-12-30T11:05:11.067Z,8.09
2018-12-30T11:06:11.142Z,8.02
2018-12-30T11:07:11.037Z,8.02
2018-12-30T11:08:11.030Z,8.10
2018-12-30T11:09:11.018Z,8.14
2018-12-30T11:10:11.048Z,7.99
2018-12-30T11:11:10.995Z,7.98
2018-12-30T11:12:11.014Z,7.99
2018-12-30T11:13:10.982Z,8.01
2018-12-30T11:14:10.966Z,8.13
2018-12-30T11:15:10.951Z,8.14
2018-12-30T11:16:10.978Z,8.13
2018-12-30T11:17:10.950Z,8.13
2018-12-30T11:18:10.934Z,8.12
2018-12-30T11:19:10.907Z,8.14
2018-12-30T11:20:10.892Z,8.14
2018-12-30T11:21:10.883Z,8.16
2018-12-30T11:22:10.917Z,8.14
2018-12-30T11:23:10.870Z,8.17
2018-12-30T11:24:10.868Z,8.10
2018-12-30T11:25:10.929Z,8.20
2018-12-30T11:26:10.833Z,8.20
2018-12-30T11:27:10.826Z,8.12
2018-12-30T11:28:10.889Z,8.16
2018-12-30T11:29:10.810Z,8.23
2018-12-30T11:30:10.801Z,8.19
2018-12-30T11:31:10.859Z,8.13
2018-12-30T11:32:10.775Z,8.20
2018-12-30T11:33:10.756Z,8.35
2018-12-30T11:34:10.771Z,8.24
2018-12-30T11:35:10.748Z,8.24
2018-12-30T11:36:10.727Z,8.12
2018-12-30T11:37:10.704Z,8.20
2018-12-30T11:38:10.699Z,8.19
2018-12-30T11:39:10.718Z,8.29
2018-12-30T11:40:10.727Z,8.32
2018-12-30T11:41:10.668Z,8.39
2018-12-30T11:42:10.652Z,8.32
2018-12-30T11:43:10.654Z,8.37
2018-12-30T11:44:10.631Z,8.29
2018-12-30T11:45:10.665Z,8.42
2018-12-30T11:46:10.641Z,8.42
2018-12-30T11:47:10.601Z,8.39
2018-12-30T11:48:10.596Z,8.38
2018-12-30T11:49:10.611Z,8.34
2018-12-30T11:50:10.564Z,8.28
2018-12-30T11:51:10.554Z,8.32
2018-12-30T11:52:10.594Z,8.29
2018-12-30T11:53:10.558Z,8.29
2018-12-30T11:54:16.433Z,8.32
2018-12-30T11:55:11.512Z,8.38
2018-12-30T11:56:10.501Z,8.24
2018-12-30T11:57:10.488Z,8.34
2018-12-30T11:58:10.528Z,8.31
2018-12-30T11:59:10.471Z,8.26
2018-12-30T12:00:10.467Z,8.35
2018-12-30T12:01:10.458Z,8.28
2018-12-30T12:02:10.446Z,8.26
2018-12-30T12:03:10.429Z,8.13
2018-12-30T12:04:10.447Z,8.21
2018-12-30T12:05:10.407Z,8.16
2018-12-30T12:06:10.388Z,8.17
2018-12-30T12:07:10.375Z,8.10
2018-12-30T12:08:10.370Z,8.13
2018-12-30T12:09:10.366Z,8.20
2018-12-30T12:10:10.383Z,8.13
2018-12-30T12:11:10.351Z,8.14
2018-12-30T12:12:10.322Z,8.16
2018-12-30T12:13:10.322Z,8.13
2018-12-30T12:14:10.304Z,8.16
2018-12-30T12:15:10.310Z,8.12
2018-12-30T12:16:10.311Z,8.13
2018-12-30T12:17:10.279Z,8.14
2018-12-30T12:18:10.263Z,8.01
2018-12-30T12:19:10.281Z,8.04
2018-12-30T12:20:10.232Z,8.01
2018-12-30T12:21:10.256Z,8.05
2018-12-30T12:22:10.283Z,8.02
2018-12-30T12:23:10.219Z,8.01
2018-12-30T12:24:10.191Z,7.99
2018-12-30T12:25:10.221Z,8.01
2018-12-30T12:26:10.185Z,7.96
2018-12-30T12:27:10.160Z,8.16
2018-12-30T12:28:10.186Z,8.14
2018-12-30T12:29:10.149Z,8.12
2018-12-30T12:30:10.129Z,8.20
2018-12-30T12:31:10.154Z,8.24
2018-12-30T12:32:10.139Z,8.16
2018-12-30T12:33:10.121Z,8.21
2018-12-30T12:34:10.126Z,8.21
2018-12-30T12:35:10.070Z,8.31
2018-12-30T12:36:10.071Z,8.17
2018-12-30T12:37:10.136Z,8.21
2018-12-30T12:38:10.050Z,8.29
2018-12-30T12:39:10.023Z,8.28
2018-12-30T12:40:10.063Z,8.26
2018-12-30T12:41:10.001Z,8.24
2018-12-30T12:42:10.000Z,8.28
2018-12-30T12:43:09.986Z,8.28
2018-12-30T12:44:09.989Z,8.20
2018-12-30T12:45:09.977Z,8.28
2018-12-30T12:46:09.982Z,8.28
2018-12-30T12:47:09.945Z,8.26
2018-12-30T12:48:09.928Z,8.24
2018-12-30T12:49:09.977Z,8.26
2018-12-30T12:50:09.916Z,8.19
2018-12-30T12:51:09.895Z,8.26
2018-12-30T12:52:09.927Z,8.31
2018-12-30T12:53:09.870Z,8.24
2018-12-30T12:54:09.861Z,8.31
2018-12-30T12:55:09.848Z,8.34
2018-12-30T12:56:09.837Z,8.34
2018-12-30T12:57:09.839Z,8.32
2018-12-30T12:58:09.858Z,8.31
2018-12-30T12:59:09.837Z,8.32
2018-12-30T13:00:09.806Z,8.29
2018-12-30T13:01:09.799Z,8.35
2018-12-30T13:02:09.781Z,8.32
2018-12-30T13:03:09.785Z,8.32
2018-12-30T13:04:09.793Z,8.28
2018-12-30T13:05:09.745Z,8.34
2018-12-30T13:06:09.742Z,8.34
2018-12-30T13:07:09.714Z,8.38
2018-12-30T13:08:09.719Z,8.35
2018-12-30T13:09:09.702Z,8.28
2018-12-30T13:10:09.769Z,8.37
2018-12-30T13:11:09.674Z,8.37
2018-12-30T13:12:09.665Z,8.35
2018-12-30T13:13:09.653Z,8.42
2018-12-30T13:14:09.639Z,8.26
2018-12-30T13:15:09.648Z,8.37
2018-12-30T13:16:09.682Z,8.29
2018-12-30T13:17:09.611Z,8.35
2018-12-30T13:18:09.605Z,8.28